createdAt,value
2023-05-10T00:00:22.790Z,5.10
2023-05-10T00:01:22.795Z,3.20
2023-05-10T00:02:22.828Z,2.40
2023-05-10T00:03:22.850Z,2.60
2023-05-10T00:04:22.804Z,3.00
2023-05-10T00:05:23.740Z,3.00
2023-05-10T00:06:22.709Z,1.90
2023-05-10T00:07:22.724Z,2.50
2023-05-10T00:08:22.698Z,1.90
2023-05-10T00:09:22.744Z,2.30
2023-05-10T00:10:22.661Z,3.20
2023-05-10T00:11:23.352Z,2.10
2023-05-10T00:12:22.644Z,1.90
2023-05-10T00:13:22.730Z,2.80
2023-05-10T00:14:22.597Z,2.70
2023-05-10T00:15:22.742Z,1.80
2023-05-10T00:16:22.592Z,2.90
2023-05-10T00:17:22.632Z,1.90
2023-05-10T00:18:22.547Z,2.90
2023-05-10T00:19:22.619Z,1.90
2023-05-10T00:20:22.489Z,2.50
2023-05-10T00:21:22.518Z,3.30
2023-05-10T00:22:22.484Z,3.20
2023-05-10T00:23:22.522Z,1.70
2023-05-10T00:24:22.478Z,2.40
2023-05-10T00:25:22.582Z,5.00
2023-05-10T00:26:22.441Z,2.90
2023-05-10T00:27:22.478Z,2.20
2023-05-10T00:28:22.410Z,3.50
2023-05-10T00:29:22.472Z,2.30
2023-05-10T00:30:22.405Z,2.40
2023-05-10T00:31:22.453Z,2.20
2023-05-10T00:32:22.410Z,2.40
2023-05-10T00:33:22.393Z,2.10
2023-05-10T00:34:22.344Z,2.30
2023-05-10T00:35:22.409Z,2.80
2023-05-10T00:36:22.318Z,3.00
2023-05-10T00:37:22.312Z,4.50
2023-05-10T00:38:22.267Z,2.20
2023-05-10T00:39:22.348Z,2.10
2023-05-10T00:40:22.246Z,2.40
2023-05-10T00:41:22.253Z,2.60
2023-05-10T00:42:22.240Z,1.90
2023-05-10T00:43:22.267Z,4.40
2023-05-10T00:44:22.178Z,2.40
2023-05-10T00:45:22.277Z,5.10
2023-05-10T00:46:22.200Z,3.20
2023-05-10T00:47:22.227Z,4.60
2023-05-10T00:48:22.159Z,4.10
2023-05-10T00:49:22.235Z,1.70
2023-05-10T00:50:22.148Z,2.60
2023-05-10T00:51:22.122Z,2.50
2023-05-10T00:52:22.090Z,2.80
2023-05-10T00:53:22.160Z,2.10
2023-05-10T00:54:22.123Z,2.80
2023-05-10T00:55:22.147Z,3.10
2023-05-10T00:56:22.033Z,2.40
2023-05-10T00:57:22.040Z,3.00
2023-05-10T00:58:22.047Z,2.50
2023-05-10T00:59:22.071Z,3.00
2023-05-10T01:00:22.031Z,1.80
2023-05-10T01:01:22.155Z,1.80
2023-05-10T01:02:21.968Z,4.50
2023-05-10T01:03:22.074Z,2.00
2023-05-10T01:04:21.946Z,4.30
2023-05-10T01:05:22.202Z,2.30
2023-05-10T01:06:21.934Z,2.50
2023-05-10T01:07:22.034Z,2.90
2023-05-10T01:08:21.908Z,4.70
2023-05-10T01:09:21.993Z,2.60
2023-05-10T01:10:21.885Z,2.50
2023-05-10T01:11:22.939Z,2.00
2023-05-10T01:12:21.919Z,2.50
2023-05-10T01:13:22.110Z,2.80
2023-05-10T01:14:21.812Z,3.30
2023-05-10T01:15:21.971Z,3.30
2023-05-10T01:16:21.841Z,3.10
2023-05-10T01:17:21.856Z,3.40
2023-05-10T01:18:21.765Z,3.00
2023-05-10T01:19:21.856Z,3.60
2023-05-10T01:20:21.736Z,2.10
2023-05-10T01:21:21.944Z,1.90
2023-05-10T01:22:21.716Z,2.40
2023-05-10T01:23:21.832Z,2.10
2023-05-10T01:24:21.735Z,4.60
2023-05-10T01:25:21.765Z,3.40
2023-05-10T01:26:21.685Z,2.60
2023-05-10T01:27:21.702Z,4.90
2023-05-10T01:28:21.624Z,2.70
2023-05-10T01:29:21.700Z,1.70
2023-05-10T01:30:22.343Z,1.80
2023-05-10T01:31:21.695Z,2.50
2023-05-10T01:32:21.588Z,2.70
2023-05-10T01:33:21.627Z,2.20
2023-05-10T01:34:21.545Z,2.20
2023-05-10T01:35:21.666Z,4.20
2023-05-10T01:36:21.568Z,3.80
2023-05-10T01:37:21.618Z,1.90
2023-05-10T01:38:21.501Z,4.00
2023-05-10T01:39:21.570Z,2.00
2023-05-10T01:40:21.463Z,3.20
2023-05-10T01:41:21.575Z,2.90
2023-05-10T01:42:21.455Z,3.40
2023-05-10T01:43:21.492Z,2.20
2023-05-10T01:44:21.478Z,2.60
2023-05-10T01:45:21.484Z,3.10
2023-05-10T01:46:21.400Z,1.80
2023-05-10T01:47:21.420Z,2.20
2023-05-10T01:48:21.372Z,5.80
2023-05-10T01:49:21.454Z,4.80
2023-05-10T01:50:21.340Z,3.20
2023-05-10T01:51:21.423Z,2.80
2023-05-10T01:52:21.859Z,2.10
2023-05-10T01:53:21.421Z,2.40
2023-05-10T01:54:21.311Z,3.80
2023-05-10T01:55:21.403Z,3.60
2023-05-10T01:56:21.247Z,4.20
2023-05-10T01:57:21.273Z,2.60
2023-05-10T01:58:21.252Z,2.50
2023-05-10T01:59:21.301Z,3.70
2023-05-10T02:00:21.217Z,5.50
2023-05-10T02:01:21.350Z,3.00
2023-05-10T02:02:21.188Z,2.10
2023-05-10T02:03:21.254Z,3.30
2023-05-10T02:04:21.139Z,2.90
2023-05-10T02:05:21.225Z,5.00
2023-05-10T02:06:21.137Z,3.50
2023-05-10T02:07:21.132Z,3.00
2023-05-10T02:08:21.138Z,3.60
2023-05-10T02:09:21.155Z,2.90
2023-05-10T02:10:21.095Z,2.50
2023-05-10T02:11:21.165Z,2.30
2023-05-10T02:12:21.100Z,4.00
2023-05-10T02:13:21.144Z,3.20
2023-05-10T02:14:21.031Z,3.60
2023-05-10T02:15:21.105Z,4.20
2023-05-10T02:16:21.066Z,2.80
2023-05-10T02:17:21.003Z,2.30
2023-05-10T02:18:21.036Z,5.10
2023-05-10T02:19:21.013Z,2.70
2023-05-10T02:20:20.944Z,2.80
2023-05-10T02:21:21.049Z,3.70
2023-05-10T02:22:20.957Z,5.00
2023-05-10T02:23:20.992Z,4.40
2023-05-10T02:24:20.912Z,4.80
2023-05-10T02:25:20.969Z,2.90
2023-05-10T02:26:20.891Z,4.20
2023-05-10T02:27:20.906Z,3.60
2023-05-10T02:28:20.846Z,3.70
2023-05-10T02:29:20.974Z,3.50
2023-05-10T02:30:20.963Z,2.80
2023-05-10T02:31:21.869Z,3.30
2023-05-10T02:32:21.002Z,3.00
2023-05-10T02:33:21.877Z,4.90
2023-05-10T02:34:20.792Z,3.30
2023-05-10T02:35:20.823Z,4.10
2023-05-10T02:36:20.769Z,5.00
2023-05-10T02:37:20.950Z,3.70
2023-05-10T02:38:20.745Z,2.60
2023-05-10T02:39:20.751Z,2.70
2023-05-10T02:40:20.728Z,2.80
2023-05-10T02:41:20.778Z,2.90
2023-05-10T02:42:20.705Z,2.60
2023-05-10T02:43:20.698Z,3.00
2023-05-10T02:44:20.650Z,5.00
2023-05-10T02:45:20.730Z,3.50
2023-05-10T02:46:20.665Z,2.70
2023-05-10T02:47:20.739Z,3.20
2023-05-10T02:48:20.640Z,5.40
2023-05-10T02:49:20.629Z,4.80
2023-05-10T02:50:20.568Z,2.60
2023-05-10T02:51:20.639Z,8.90
2023-05-10T02:52:20.584Z,3.60
2023-05-10T02:53:20.564Z,3.10
2023-05-10T02:54:20.595Z,3.40
2023-05-10T02:55:20.577Z,3.40
2023-05-10T02:56:20.475Z,4.90
2023-05-10T02:57:20.575Z,4.50
2023-05-10T02:58:20.477Z,7.10
2023-05-10T02:59:20.489Z,3.80
2023-05-10T03:00:20.456Z,3.70
2023-05-10T03:01:20.570Z,3.30
2023-05-10T03:02:20.454Z,3.40
2023-05-10T03:03:20.419Z,4.60
2023-05-10T03:04:20.478Z,3.50
2023-05-10T03:05:20.463Z,3.60
2023-05-10T03:06:20.419Z,4.70
2023-05-10T03:07:20.468Z,3.90
2023-05-10T03:08:20.321Z,5.10
2023-05-10T03:09:20.378Z,4.80
2023-05-10T03:10:20.320Z,3.50
2023-05-10T03:11:20.414Z,3.80
2023-05-10T03:12:20.293Z,5.80
2023-05-10T03:13:20.336Z,3.70
2023-05-10T03:14:20.253Z,3.60
2023-05-10T03:15:20.327Z,4.30
2023-05-10T03:16:20.290Z,5.20
2023-05-10T03:17:21.271Z,4.10
2023-05-10T03:18:20.221Z,3.60
2023-05-10T03:19:20.255Z,3.50
2023-05-10T03:20:20.251Z,3.80
2023-05-10T03:21:20.266Z,4.80
2023-05-10T03:22:20.318Z,5.00
2023-05-10T03:23:20.156Z,3.60
2023-05-10T03:24:20.167Z,5.80
2023-05-10T03:25:20.180Z,4.00
2023-05-10T03:26:20.087Z,4.00
2023-05-10T03:27:20.200Z,3.20
2023-05-10T03:28:20.107Z,3.60
2023-05-10T03:29:20.099Z,6.40
2023-05-10T03:30:25.981Z,5.70
2023-05-10T03:31:21.082Z,4.60
2023-05-10T03:32:41.185Z,5.60
2023-05-10T03:33:20.026Z,4.30
2023-05-10T03:34:20.048Z,3.80
2023-05-10T03:35:19.975Z,4.10
2023-05-10T03:36:20.006Z,5.30
2023-05-10T03:37:19.960Z,4.30
2023-05-10T03:38:19.958Z,4.40
2023-05-10T03:39:19.923Z,6.20
2023-05-10T03:40:21.026Z,3.70
2023-05-10T03:41:19.921Z,4.30
2023-05-10T03:42:19.950Z,4.80
2023-05-10T03:43:19.870Z,3.30
2023-05-10T03:44:19.947Z,6.00
2023-05-10T03:45:19.864Z,3.20
2023-05-10T03:46:19.958Z,4.40
2023-05-10T03:47:19.846Z,3.90
2023-05-10T03:48:24.113Z,4.90
2023-05-10T03:49:19.824Z,3.20
2023-05-10T03:50:20.062Z,3.50
2023-05-10T03:51:19.809Z,5.00
2023-05-10T03:52:19.851Z,5.30
2023-05-10T03:53:19.987Z,4.60
2023-05-10T03:54:19.849Z,4.10
2023-05-10T03:55:19.766Z,8.60
2023-05-10T03:56:19.780Z,3.90
2023-05-10T03:57:19.699Z,3.70
2023-05-10T03:58:19.720Z,4.50
2023-05-10T03:59:19.665Z,4.10
2023-05-10T04:00:19.889Z,4.00
2023-05-10T04:01:19.667Z,5.50
2023-05-10T04:02:19.754Z,4.60
2023-05-10T04:03:19.711Z,6.50
2023-05-10T04:04:20.047Z,4.30
2023-05-10T04:05:19.599Z,4.80
2023-05-10T04:06:19.802Z,4.80
2023-05-10T04:07:19.586Z,7.50
2023-05-10T04:08:19.553Z,4.20
2023-05-10T04:09:19.572Z,5.00
2023-05-10T04:10:19.709Z,4.40
2023-05-10T04:11:19.491Z,5.10
2023-05-10T04:12:19.560Z,5.40
2023-05-10T04:13:19.485Z,4.70
2023-05-10T04:14:19.553Z,4.80
2023-05-10T04:15:19.441Z,3.30
2023-05-10T04:16:19.576Z,4.70
2023-05-10T04:17:19.472Z,4.20
2023-05-10T04:18:19.533Z,4.30
2023-05-10T04:19:19.411Z,3.60
2023-05-10T04:20:19.577Z,3.40
2023-05-10T04:21:19.377Z,4.90
2023-05-10T04:22:19.458Z,4.60
2023-05-10T04:23:19.376Z,4.60
2023-05-10T04:24:19.476Z,3.60
2023-05-10T04:25:19.385Z,5.10
2023-05-10T04:26:20.414Z,6.30
2023-05-10T04:27:19.310Z,6.30
2023-05-10T04:28:19.320Z,5.60
2023-05-10T04:29:19.268Z,4.40
2023-05-10T04:30:19.367Z,4.60
2023-05-10T04:31:19.258Z,3.80
2023-05-10T04:32:19.338Z,3.70
2023-05-10T04:33:19.200Z,6.50
2023-05-10T04:34:19.234Z,3.90
2023-05-10T04:35:19.172Z,5.80
2023-05-10T04:36:19.329Z,3.50
2023-05-10T04:37:19.178Z,4.00
2023-05-10T04:38:19.204Z,5.90
2023-05-10T04:39:19.134Z,5.00
2023-05-10T04:40:19.356Z,3.50
2023-05-10T04:41:19.117Z,7.00
2023-05-10T04:42:19.176Z,4.30
2023-05-10T04:43:19.074Z,4.70
2023-05-10T04:44:19.172Z,4.20
2023-05-10T04:45:19.041Z,5.40
2023-05-10T04:46:19.188Z,4.40
2023-05-10T04:47:19.037Z,4.90
2023-05-10T04:48:19.106Z,4.90
2023-05-10T04:49:19.006Z,3.10
2023-05-10T04:50:19.130Z,5.60
2023-05-10T04:51:18.966Z,4.40
2023-05-10T04:52:19.071Z,3.80
2023-05-10T04:53:18.955Z,3.10
2023-05-10T04:54:19.032Z,4.30
2023-05-10T04:55:18.914Z,6.10
2023-05-10T04:56:18.987Z,4.00
2023-05-10T04:57:18.878Z,3.90
2023-05-10T04:58:18.935Z,5.00
2023-05-10T04:59:18.839Z,5.20
2023-05-10T05:00:19.058Z,3.90
2023-05-10T05:01:18.872Z,4.20
2023-05-10T05:02:18.932Z,6.70
2023-05-10T05:03:18.938Z,4.30
2023-05-10T05:04:18.842Z,4.80
2023-05-10T05:05:18.783Z,4.10
2023-05-10T05:06:18.804Z,4.00
2023-05-10T05:07:18.786Z,5.10
2023-05-10T05:08:18.762Z,3.30
2023-05-10T05:09:18.726Z,3.70
2023-05-10T05:10:18.987Z,6.90
2023-05-10T05:11:18.697Z,6.00
2023-05-10T05:12:19.783Z,5.50
2023-05-10T05:13:18.706Z,4.70
2023-05-10T05:14:18.721Z,4.60
2023-05-10T05:15:18.653Z,4.20
2023-05-10T05:16:18.793Z,4.40
2023-05-10T05:17:18.631Z,4.70
2023-05-10T05:18:18.713Z,5.40
2023-05-10T05:19:18.610Z,4.10
2023-05-10T05:20:18.825Z,5.40
2023-05-10T05:21:18.591Z,4.10
2023-05-10T05:22:19.615Z,6.30
2023-05-10T05:23:18.560Z,4.40
2023-05-10T05:24:18.647Z,3.80
2023-05-10T05:25:18.507Z,4.50
2023-05-10T05:26:18.797Z,4.10
2023-05-10T05:27:18.757Z,3.90
2023-05-10T05:28:19.518Z,4.50
2023-05-10T05:29:18.473Z,6.00
2023-05-10T05:30:18.807Z,4.70
2023-05-10T05:31:18.458Z,4.40
2023-05-10T05:32:18.427Z,5.30
2023-05-10T05:33:18.464Z,6.00
2023-05-10T05:34:18.481Z,5.20
2023-05-10T05:35:18.624Z,6.10
2023-05-10T05:36:18.453Z,3.50
2023-05-10T05:37:18.388Z,4.20
2023-05-10T05:38:18.376Z,4.20
2023-05-10T05:39:18.327Z,4.70
2023-05-10T05:40:18.484Z,7.50
2023-05-10T05:41:18.326Z,4.70
2023-05-10T05:42:18.366Z,6.70
2023-05-10T05:43:18.275Z,5.50
2023-05-10T05:44:18.373Z,5.90
2023-05-10T05:45:18.604Z,6.60
2023-05-10T05:46:18.477Z,4.90
2023-05-10T05:47:18.250Z,6.20
2023-05-10T05:48:18.304Z,6.60
2023-05-10T05:49:18.271Z,6.00
2023-05-10T05:50:18.317Z,4.40
2023-05-10T05:51:18.181Z,4.70
2023-05-10T05:52:18.437Z,6.70
2023-05-10T05:53:18.226Z,3.90
2023-05-10T05:54:18.247Z,5.30
2023-05-10T05:55:18.363Z,5.00
2023-05-10T05:56:18.224Z,6.50
2023-05-10T05:57:18.145Z,6.10
2023-05-10T05:58:20.215Z,6.10
2023-05-10T05:59:18.157Z,4.80
2023-05-10T06:00:18.214Z,3.80
2023-05-10T06:01:18.065Z,3.70
2023-05-10T06:02:18.086Z,5.20
2023-05-10T06:03:18.107Z,4.60
2023-05-10T06:04:18.299Z,4.00
2023-05-10T06:05:18.236Z,6.10
2023-05-10T06:06:18.035Z,5.20
2023-05-10T06:07:17.979Z,5.80
2023-05-10T06:08:18.022Z,5.90
2023-05-10T06:09:17.942Z,5.20
2023-05-10T06:10:18.000Z,6.50
2023-05-10T06:11:17.937Z,4.60
2023-05-10T06:12:17.980Z,4.40
2023-05-10T06:13:17.934Z,7.70
2023-05-10T06:14:17.932Z,4.80
2023-05-10T06:15:18.044Z,3.20
2023-05-10T06:16:17.981Z,4.50
2023-05-10T06:17:17.834Z,5.50
2023-05-10T06:18:21.085Z,7.90
2023-05-10T06:19:17.827Z,6.90
2023-05-10T06:20:17.860Z,5.20
2023-05-10T06:21:17.791Z,4.80
2023-05-10T06:22:17.786Z,4.60
2023-05-10T06:23:17.767Z,5.50
2023-05-10T06:24:17.853Z,4.30
2023-05-10T06:25:17.896Z,4.60
2023-05-10T06:26:17.809Z,4.10
2023-05-10T06:27:17.719Z,4.00
2023-05-10T06:28:17.735Z,5.50
2023-05-10T06:29:17.685Z,4.90
2023-05-10T06:30:17.815Z,4.20
2023-05-10T06:31:17.694Z,4.60
2023-05-10T06:32:18.692Z,5.50
2023-05-10T06:33:17.637Z,4.20
2023-05-10T06:34:18.123Z,5.80
2023-05-10T06:35:17.895Z,3.90
2023-05-10T06:36:17.614Z,6.90
2023-05-10T06:37:18.645Z,4.50
2023-05-10T06:38:17.581Z,7.10
2023-05-10T06:39:17.655Z,5.10
2023-05-10T06:40:17.689Z,4.20
2023-05-10T06:41:17.560Z,1.80
2023-05-10T06:42:17.662Z,5.40
2023-05-10T06:43:17.606Z,2.70
2023-05-10T06:44:17.577Z,5.40
2023-05-10T06:45:17.801Z,5.20
2023-05-10T06:46:17.870Z,6.70
2023-05-10T06:47:18.106Z,4.20
2023-05-10T06:48:17.587Z,4.50
2023-05-10T06:49:17.387Z,6.30
2023-05-10T06:50:17.471Z,4.50
2023-05-10T06:51:17.382Z,8.40
2023-05-10T06:52:17.419Z,5.80
2023-05-10T06:53:17.363Z,5.00
2023-05-10T06:54:17.444Z,6.00
2023-05-10T06:55:17.561Z,5.50
2023-05-10T06:56:17.407Z,4.80
2023-05-10T06:57:30.621Z,4.50
2023-05-10T06:58:18.270Z,5.60
2023-05-10T06:59:17.381Z,5.00
2023-05-10T07:00:17.502Z,5.50
2023-05-10T07:01:17.538Z,6.20
2023-05-10T07:02:17.297Z,4.90
2023-05-10T07:03:17.326Z,6.40
2023-05-10T07:04:17.283Z,5.90
2023-05-10T07:05:17.605Z,5.40
2023-05-10T07:06:29.335Z,5.40
2023-05-10T07:07:18.154Z,4.90
2023-05-10T07:08:17.189Z,3.70
2023-05-10T07:09:17.144Z,5.30
2023-05-10T07:10:17.200Z,5.80
2023-05-10T07:11:17.118Z,4.80
2023-05-10T07:12:17.236Z,6.60
2023-05-10T07:13:17.215Z,5.50
2023-05-10T07:14:17.123Z,6.70
2023-05-10T07:15:17.515Z,3.40
2023-05-10T07:16:17.217Z,5.70
2023-05-10T07:17:17.030Z,6.50
2023-05-10T07:18:17.139Z,6.30
2023-05-10T07:19:17.008Z,5.80
2023-05-10T07:20:17.065Z,5.00
2023-05-10T07:21:17.003Z,9.00
2023-05-10T07:22:16.996Z,5.60
2023-05-10T07:23:16.961Z,5.50
2023-05-10T07:24:17.081Z,4.70
2023-05-10T07:25:17.043Z,4.20
2023-05-10T07:26:17.014Z,5.80
2023-05-10T07:27:16.886Z,5.10
2023-05-10T07:28:16.995Z,4.80
2023-05-10T07:29:16.854Z,4.90
2023-05-10T07:30:17.156Z,3.70
2023-05-10T07:31:16.832Z,6.20
2023-05-10T07:32:16.899Z,4.50
2023-05-10T07:33:16.855Z,3.70
2023-05-10T07:34:16.897Z,5.20
2023-05-10T07:35:17.008Z,7.40
2023-05-10T07:36:16.895Z,6.90
2023-05-10T07:37:16.838Z,4.40
2023-05-10T07:38:16.819Z,4.20
2023-05-10T07:39:24.680Z,4.60
2023-05-10T07:40:17.723Z,6.00
2023-05-10T07:41:16.876Z,5.30
2023-05-10T07:42:16.978Z,3.80
2023-05-10T07:43:17.785Z,3.20
2023-05-10T07:44:16.655Z,2.50
2023-05-10T07:45:16.998Z,4.00
2023-05-10T07:46:16.705Z,2.90
2023-05-10T07:47:17.674Z,2.70
2023-05-10T07:48:16.877Z,6.60
2023-05-10T07:49:16.793Z,3.40
2023-05-10T07:50:16.597Z,4.00
2023-05-10T07:51:16.675Z,3.90
2023-05-10T07:52:16.565Z,6.00
2023-05-10T07:53:16.623Z,4.60
2023-05-10T07:54:16.618Z,3.40
2023-05-10T07:55:16.984Z,3.40
2023-05-10T07:56:16.517Z,2.30
2023-05-10T07:57:17.609Z,4.30
2023-05-10T07:58:16.489Z,3.00
2023-05-10T07:59:16.580Z,3.60
2023-05-10T08:00:16.692Z,2.90
2023-05-10T08:01:16.556Z,1.30
2023-05-10T08:02:16.469Z,4.00
2023-05-10T08:03:16.655Z,3.50
2023-05-10T08:04:16.572Z,1.70
2023-05-10T08:05:16.761Z,2.50
2023-05-10T08:06:16.405Z,4.60
2023-05-10T08:07:16.395Z,5.00
2023-05-10T08:08:16.361Z,2.90
2023-05-10T08:09:16.399Z,3.60
2023-05-10T08:10:16.307Z,4.60
2023-05-10T08:11:17.344Z,3.10
2023-05-10T08:12:16.310Z,4.50
2023-05-10T08:13:16.364Z,3.80
2023-05-10T08:14:16.331Z,4.00
2023-05-10T08:15:16.558Z,2.40
2023-05-10T08:16:16.280Z,3.00
2023-05-10T08:17:17.682Z,2.20
2023-05-10T08:18:16.298Z,3.90
2023-05-10T08:19:16.338Z,4.80
2023-05-10T08:20:16.195Z,3.20
2023-05-10T08:21:16.184Z,2.50
2023-05-10T08:22:16.541Z,2.20
2023-05-10T08:23:16.199Z,1.90
2023-05-10T08:24:16.164Z,2.00
2023-05-10T08:25:16.416Z,3.30
2023-05-10T08:26:16.108Z,2.00
2023-05-10T08:27:16.140Z,3.10
2023-05-10T08:28:16.106Z,1.70
2023-05-10T08:29:17.187Z,3.40
2023-05-10T08:30:16.088Z,2.10
2023-05-10T08:31:17.129Z,1.80
2023-05-10T08:32:16.236Z,2.20
2023-05-10T08:33:16.098Z,3.50
2023-05-10T08:34:16.011Z,1.50
2023-05-10T08:35:16.287Z,4.10
2023-05-10T08:36:15.993Z,1.90
2023-05-10T08:37:16.012Z,3.00
2023-05-10T08:38:15.960Z,2.00
2023-05-10T08:39:26.786Z,1.40
2023-05-10T08:40:16.963Z,2.10
2023-05-10T08:41:16.039Z,1.60
2023-05-10T08:42:15.939Z,1.50
2023-05-10T08:43:16.006Z,3.90
2023-05-10T08:44:15.870Z,3.10
2023-05-10T08:45:16.205Z,2.80
2023-05-10T08:46:15.867Z,1.80
2023-05-10T08:47:15.908Z,2.10
2023-05-10T08:48:15.861Z,3.20
2023-05-10T08:49:15.868Z,1.90
2023-05-10T08:50:15.792Z,1.70
2023-05-10T08:51:15.960Z,2.10
2023-05-10T08:52:15.766Z,3.20
2023-05-10T08:53:16.829Z,2.10
2023-05-10T08:54:15.802Z,1.80
2023-05-10T08:55:16.161Z,1.50
2023-05-10T08:56:15.722Z,2.70
2023-05-10T08:57:15.726Z,2.40
2023-05-10T08:58:15.726Z,1.50
2023-05-10T08:59:15.739Z,2.80
2023-05-10T09:00:15.709Z,2.00
2023-05-10T09:01:15.692Z,7.40
2023-05-10T09:02:18.089Z,3.30
2023-05-10T09:03:15.677Z,1.10
2023-05-10T09:04:15.698Z,2.40
2023-05-10T09:05:15.972Z,1.90
2023-05-10T09:06:15.656Z,2.00
2023-05-10T09:07:15.749Z,3.40
2023-05-10T09:08:15.551Z,2.30
2023-05-10T09:09:15.633Z,2.30
2023-05-10T09:10:15.532Z,2.00
2023-05-10T09:11:15.530Z,2.80
2023-05-10T09:12:15.673Z,2.70
2023-05-10T09:13:15.546Z,2.80
2023-05-10T09:14:15.506Z,2.40
2023-05-10T09:15:15.866Z,1.50
2023-05-10T09:16:21.880Z,4.20
2023-05-10T09:17:16.566Z,1.80
2023-05-10T09:18:15.506Z,1.90
2023-05-10T09:19:15.437Z,2.90
2023-05-10T09:20:15.509Z,3.80
2023-05-10T09:21:15.438Z,1.60
2023-05-10T09:22:15.520Z,1.70
2023-05-10T09:23:15.388Z,1.90
2023-05-10T09:24:15.419Z,2.10
2023-05-10T09:25:15.494Z,3.30
2023-05-10T09:26:15.361Z,4.40
2023-05-10T09:27:15.291Z,5.10
2023-05-10T09:28:15.355Z,1.90
2023-05-10T09:29:16.696Z,1.60
2023-05-10T09:30:15.362Z,2.60
2023-05-10T09:31:15.311Z,2.70
2023-05-10T09:32:15.281Z,2.00
2023-05-10T09:33:15.267Z,2.10
2023-05-10T09:34:15.350Z,3.00
2023-05-10T09:35:15.375Z,4.00
2023-05-10T09:36:16.244Z,1.50
2023-05-10T09:37:15.180Z,3.40
2023-05-10T09:38:15.220Z,1.60
2023-05-10T09:39:15.119Z,2.10
2023-05-10T09:40:15.157Z,3.40
2023-05-10T09:41:15.186Z,2.40
2023-05-10T09:42:15.200Z,2.00
2023-05-10T09:43:15.071Z,2.90
2023-05-10T09:44:15.192Z,2.10
2023-05-10T09:45:15.606Z,4.10
2023-05-10T09:46:15.083Z,2.60
2023-05-10T09:47:15.037Z,2.10
2023-05-10T09:48:15.117Z,1.70
2023-05-10T09:49:15.147Z,3.50
2023-05-10T09:50:15.152Z,1.60
2023-05-10T09:51:15.176Z,2.10
2023-05-10T09:52:15.152Z,3.20
2023-05-10T09:53:15.361Z,4.40
2023-05-10T09:54:15.030Z,2.10
2023-05-10T09:55:15.315Z,2.20
2023-05-10T09:56:15.019Z,1.70
2023-05-10T09:57:15.279Z,2.20
2023-05-10T09:58:15.384Z,2.60
2023-05-10T09:59:15.022Z,1.60
2023-05-10T10:00:14.974Z,1.90
2023-05-10T10:01:14.851Z,1.40
2023-05-10T10:02:16.109Z,1.10
2023-05-10T10:03:14.951Z,4.50
2023-05-10T10:04:14.940Z,1.50
2023-05-10T10:05:14.979Z,1.80
2023-05-10T10:06:26.542Z,1.90
2023-05-10T10:07:15.975Z,3.70
2023-05-10T10:08:14.934Z,3.30
2023-05-10T10:09:14.869Z,2.60
2023-05-10T10:10:14.838Z,2.20
2023-05-10T10:11:14.744Z,3.70
2023-05-10T10:12:14.762Z,3.50
2023-05-10T10:13:14.710Z,2.00
2023-05-10T10:14:14.791Z,1.30
2023-05-10T10:15:16.573Z,2.90
2023-05-10T10:16:14.766Z,3.00
2023-05-10T10:17:14.643Z,1.70
2023-05-10T10:18:14.727Z,2.70
2023-05-10T10:19:14.722Z,2.50
2023-05-10T10:20:14.899Z,2.00
2023-05-10T10:21:14.583Z,3.10
2023-05-10T10:22:14.618Z,1.40
2023-05-10T10:23:17.154Z,1.10
2023-05-10T10:24:14.993Z,4.80
2023-05-10T10:25:15.060Z,1.70
2023-05-10T10:26:14.797Z,2.20
2023-05-10T10:27:14.817Z,2.30
2023-05-10T10:28:15.000Z,1.90
2023-05-10T10:29:14.615Z,1.80
2023-05-10T10:30:14.820Z,1.10
2023-05-10T10:31:14.502Z,1.40
2023-05-10T10:32:15.066Z,1.60
2023-05-10T10:33:27.132Z,1.90
2023-05-10T10:34:15.921Z,2.60
2023-05-10T10:35:14.989Z,1.60
2023-05-10T10:36:14.383Z,1.90
2023-05-10T10:37:14.403Z,1.90
2023-05-10T10:38:14.559Z,1.80
2023-05-10T10:39:14.497Z,1.20
2023-05-10T10:40:14.332Z,2.30
2023-05-10T10:41:14.380Z,2.80
2023-05-10T10:42:14.324Z,5.30
2023-05-10T10:43:14.381Z,2.20
2023-05-10T10:44:14.646Z,2.90
2023-05-10T10:45:15.211Z,4.50
2023-05-10T10:46:14.609Z,1.80
2023-05-10T10:47:14.524Z,4.40
2023-05-10T10:48:14.304Z,6.40
2023-05-10T10:49:14.302Z,2.00
2023-05-10T10:50:14.239Z,1.50
2023-05-10T10:51:14.294Z,1.20
2023-05-10T10:52:14.198Z,2.30
2023-05-10T10:53:14.401Z,2.90
2023-05-10T10:54:15.286Z,1.90
2023-05-10T10:55:14.535Z,1.70
2023-05-10T10:56:14.133Z,2.00
2023-05-10T10:57:14.334Z,1.50
2023-05-10T10:58:14.175Z,3.10
2023-05-10T10:59:14.233Z,4.10
2023-05-10T11:00:14.088Z,1.40
2023-05-10T11:01:14.351Z,3.30
2023-05-10T11:02:14.049Z,2.30
2023-05-10T11:03:14.196Z,2.60
2023-05-10T11:04:14.158Z,2.00
2023-05-10T11:05:14.646Z,2.60
2023-05-10T11:06:14.197Z,3.90
2023-05-10T11:07:14.579Z,1.60
2023-05-10T11:08:14.109Z,1.50
2023-05-10T11:09:15.359Z,1.30
2023-05-10T11:10:14.031Z,2.20
2023-05-10T11:11:15.046Z,4.60
2023-05-10T11:12:14.054Z,2.40
2023-05-10T11:13:14.014Z,2.90
2023-05-10T11:14:13.989Z,0.80
2023-05-10T11:15:15.149Z,2.50
2023-05-10T11:16:13.952Z,2.40
2023-05-10T11:17:13.980Z,2.50
2023-05-10T11:18:13.805Z,1.80
2023-05-10T11:19:14.039Z,1.80
2023-05-10T11:20:13.829Z,1.50
2023-05-10T11:21:13.843Z,2.30
2023-05-10T11:22:13.806Z,0.90
2023-05-10T11:23:13.863Z,1.40
2023-05-10T11:24:13.738Z,1.80
2023-05-10T11:25:13.740Z,3.20
2023-05-10T11:26:13.698Z,3.40
2023-05-10T11:27:13.755Z,2.50
2023-05-10T11:28:13.777Z,1.40
2023-05-10T11:29:13.765Z,1.20
2023-05-10T11:30:13.786Z,2.80
2023-05-10T11:31:13.729Z,2.10
2023-05-10T11:32:13.619Z,1.30
2023-05-10T11:33:13.696Z,1.70
2023-05-10T11:34:13.666Z,1.00
2023-05-10T11:35:13.605Z,1.20
2023-05-10T11:36:13.590Z,1.70
2023-05-10T11:37:13.768Z,1.40
2023-05-10T11:38:13.627Z,1.40
2023-05-10T11:39:13.728Z,2.30
2023-05-10T11:40:13.613Z,1.80
2023-05-10T11:41:13.792Z,1.40
2023-05-10T11:42:13.669Z,2.20
2023-05-10T11:43:13.576Z,2.60
2023-05-10T11:44:13.483Z,1.10
2023-05-10T11:45:13.508Z,1.00
2023-05-10T11:46:13.495Z,5.00
2023-05-10T11:47:13.505Z,1.60
2023-05-10T11:48:13.461Z,1.40
2023-05-10T11:49:13.516Z,1.60
2023-05-10T11:50:13.479Z,2.10
2023-05-10T11:51:13.498Z,0.80
2023-05-10T11:52:13.390Z,2.70
2023-05-10T11:53:13.455Z,1.20
2023-05-10T11:54:13.366Z,1.50
2023-05-10T11:55:13.370Z,1.00
2023-05-10T11:56:13.357Z,2.90
2023-05-10T11:57:14.340Z,1.80
2023-05-10T11:58:13.315Z,2.60
2023-05-10T11:59:13.336Z,1.40
2023-05-10T12:00:13.325Z,1.80
2023-05-10T12:01:13.377Z,0.80
2023-05-10T12:02:13.248Z,2.70
2023-05-10T12:03:13.383Z,1.00
2023-05-10T12:04:13.439Z,1.40
2023-05-10T12:05:13.405Z,1.90
2023-05-10T12:06:13.209Z,2.30
2023-05-10T12:07:13.295Z,1.10
2023-05-10T12:08:13.167Z,3.50
2023-05-10T12:09:15.271Z,3.00
2023-05-10T12:10:13.285Z,1.60
2023-05-10T12:11:13.321Z,1.60
2023-05-10T12:12:13.172Z,1.50
2023-05-10T12:13:13.191Z,1.00
2023-05-10T12:14:13.100Z,3.10
2023-05-10T12:15:13.215Z,1.00
2023-05-10T12:16:13.322Z,1.00
2023-05-10T12:17:13.150Z,1.60
2023-05-10T12:18:13.051Z,0.90
2023-05-10T12:19:13.255Z,1.00
2023-05-10T12:20:13.070Z,1.10
2023-05-10T12:21:15.232Z,1.50
2023-05-10T12:22:13.000Z,1.30
2023-05-10T12:23:13.986Z,3.60
2023-05-10T12:24:12.966Z,1.20
2023-05-10T12:25:13.102Z,1.30
2023-05-10T12:26:12.957Z,1.30
2023-05-10T12:27:14.059Z,1.20
2023-05-10T12:28:13.033Z,1.10
2023-05-10T12:29:13.101Z,2.50
2023-05-10T12:30:12.925Z,1.20
2023-05-10T12:31:35.081Z,1.00
2023-05-10T12:32:12.991Z,1.80
2023-05-10T12:33:14.118Z,1.10
2023-05-10T12:34:12.883Z,2.20
2023-05-10T12:35:12.985Z,1.60
2023-05-10T12:36:12.805Z,1.50
2023-05-10T12:37:12.917Z,1.10
2023-05-10T12:38:12.786Z,1.20
2023-05-10T12:39:14.000Z,1.00
2023-05-10T12:40:12.849Z,1.40
2023-05-10T12:41:12.833Z,1.10
2023-05-10T12:42:12.844Z,2.40
2023-05-10T12:43:12.829Z,0.80
2023-05-10T12:44:12.744Z,1.50
2023-05-10T12:45:13.787Z,1.20
2023-05-10T12:46:12.788Z,1.00
2023-05-10T12:47:12.763Z,1.60
2023-05-10T12:48:12.700Z,1.20
2023-05-10T12:49:12.835Z,2.10
2023-05-10T12:50:12.682Z,2.00
2023-05-10T12:51:12.720Z,1.50
2023-05-10T12:52:12.627Z,1.00
2023-05-10T12:53:12.740Z,3.10
2023-05-10T12:54:12.609Z,2.70
2023-05-10T12:55:12.676Z,2.20
2023-05-10T12:56:12.559Z,2.00
2023-05-10T12:57:12.676Z,1.90
2023-05-10T12:58:17.890Z,2.20
2023-05-10T12:59:13.504Z,3.60
2023-05-10T13:00:12.692Z,1.50
2023-05-10T13:01:12.549Z,2.00
2023-05-10T13:02:12.499Z,2.30
2023-05-10T13:03:12.456Z,5.70
2023-05-10T13:04:12.568Z,1.30
2023-05-10T13:05:12.503Z,1.40
2023-05-10T13:06:12.745Z,0.90
2023-05-10T13:07:12.402Z,1.30
2023-05-10T13:08:33.511Z,3.10
2023-05-10T13:09:12.398Z,1.30
2023-05-10T13:10:12.543Z,1.80
2023-05-10T13:11:12.357Z,3.50
2023-05-10T13:12:12.502Z,2.30
2023-05-10T13:13:12.467Z,2.40
2023-05-10T13:14:12.437Z,2.60
2023-05-10T13:15:12.279Z,1.90
2023-05-10T13:16:12.465Z,1.90
2023-05-10T13:17:12.504Z,1.30
2023-05-10T13:18:12.619Z,1.20